Time;durP1;ratioP1;P1;durP2;ratioP2;P2;SDS_P1;SDS_P2;PMS_P1;PMS_P2;Temp;Humidity;BMP_temperature;BMP_pressure;BME280_temperature;BME280_humidity;BME280_pressure;Samples;Min_cycle;Max_cycle;Signal;HPM_P1;HPM_P2
2022/10/21 00:00:35;;;;;;;7.85;4.35;;;;;;;22.21;62.92;99155.56;2097985;28;20056;-43
2022/10/21 00:01:37;;;;;;;5.93;4.03;;;;;;;22.21;62.99;99152.88;2096668;28;20051;-45
2022/10/21 00:02:37;;;;;;;8.95;4.75;;;;;;;22.22;63.06;99156.41;2098737;28;20052;-44
2022/10/21 00:03:40;;;;;;;9.25;4.40;;;;;;;22.20;63.00;99158.47;2098060;28;20445;-45
2022/10/21 00:04:40;;;;;;;6.93;4.30;;;;;;;22.20;63.18;99158.47;2098965;28;20050;-46
2022/10/21 00:05:42;;;;;;;10.85;4.32;;;;;;;22.20;63.10;99153.91;2098548;28;20501;-51
2022/10/21 00:06:43;;;;;;;11.52;4.63;;;;;;;22.21;62.98;99160.16;2098203;28;20048;-46
2022/10/21 00:07:45;;;;;;;7.63;4.72;;;;;;;22.20;62.96;99163.88;2096841;28;20808;-44
2022/10/21 00:08:46;;;;;;;8.23;4.47;;;;;;;22.20;63.16;99164.72;2100617;28;20490;-45
2022/10/21 00:09:47;;;;;;;8.20;4.35;;;;;;;22.20;63.03;99155.78;2100465;28;20044;-47
2022/10/21 00:10:50;;;;;;;8.93;4.63;;;;;;;22.21;63.14;99154.75;2098831;28;20048;-44
2022/10/21 00:11:53;;;;;;;8.77;5.03;;;;;;;22.21;63.05;99154.75;2098123;28;20506;-45
2022/10/21 00:12:54;;;;;;;5.88;3.88;;;;;;;22.20;63.10;99163.88;2098682;28;20051;-47
2022/10/21 00:13:56;;;;;;;11.10;5.35;;;;;;;22.20;63.05;99169.28;2101251;28;20440;-46
2022/10/21 00:14:56;;;;;;;6.00;4.03;;;;;;;22.20;62.83;99169.28;2102278;28;20518;-44
2022/10/21 00:15:59;;;;;;;8.23;4.45;;;;;;;22.20;62.97;99166.59;2103049;28;20048;-45
2022/10/21 00:17:01;;;;;;;7.93;4.10;;;;;;;22.19;62.97;99167.63;2102217;28;20419;-46
2022/10/21 00:18:02;;;;;;;9.82;5.00;;;;;;;22.21;63.03;99173.66;2094524;28;20052;-45
2022/10/21 00:19:03;;;;;;;9.20;4.13;;;;;;;22.21;63.00;99173.66;2102530;28;20078;-45
2022/10/21 00:20:06;;;;;;;6.78;4.00;;;;;;;22.18;63.09;99177.63;2102574;28;20108;-44
2022/10/21 00:21:09;;;;;;;9.00;4.63;;;;;;;22.20;63.15;99180.91;2103310;28;20899;-45
2022/10/21 00:22:10;;;;;;;7.03;5.07;;;;;;;22.18;63.10;99180.31;2103493;28;20104;-44
2022/10/21 00:23:12;;;;;;;8.60;4.00;;;;;;;22.19;63.00;99189.25;2102898;28;20456;-45
2022/10/21 00:24:12;;;;;;;10.27;4.30;;;;;;;22.19;63.03;99189.25;2101412;28;20052;-45
2022/10/21 00:25:14;;;;;;;7.55;4.32;;;;;;;22.19;63.03;99189.25;2102197;28;20123;-45
2022/10/21 00:26:16;;;;;;;6.45;4.40;;;;;;;22.19;62.95;99192.78;2103023;28;20049;-45
2022/10/21 00:27:19;;;;;;;10.60;4.63;;;;;;;22.20;62.95;99196.31;2101523;28;20040;-45
2022/10/21 00:28:20;;;;;;;6.25;4.05;;;;;;;22.19;62.92;99192.78;2102691;28;20105;-45
2022/10/21 00:29:22;;;;;;;10.05;4.32;;;;;;;22.19;62.92;99198.19;2102982;28;20048;-45
2022/10/21 00:30:22;;;;;;;8.27;4.90;;;;;;;22.19;63.00;99206.28;2100763;28;20048;-44
2022/10/21 00:31:25;;;;;;;6.57;4.00;;;;;;;22.18;63.17;99201.13;2102673;28;20527;-44
2022/10/21 00:32:26;;;;;;;8.98;4.32;;;;;;;22.18;63.06;99212.75;2102910;28;20079;-44
2022/10/21 00:33:28;;;;;;;8.68;4.72;;;;;;;22.19;62.97;99210.88;2103239;28;20482;-43
2022/10/21 00:34:30;;;;;;;10.13;4.38;;;;;;;22.17;63.15;99211.03;2102952;28;20504;-44
2022/10/21 00:35:33;;;;;;;11.07;4.18;;;;;;;22.17;63.02;99212.91;2103767;28;20055;-44
2022/10/21 00:36:34;;;;;;;7.47;4.68;;;;;;;22.18;63.02;99217.31;2102235;28;20052;-44
2022/10/21 00:37:36;;;;;;;10.13;4.50;;;;;;;22.17;63.02;99212.91;2103372;28;20094;-44
2022/10/21 00:38:37;;;;;;;8.50;4.38;;;;;;;22.18;62.88;99217.31;2103295;28;20044;-45
2022/10/21 00:39:39;;;;;;;9.80;4.07;;;;;;;22.18;62.89;99217.31;2102569;28;20097;-45
2022/10/21 00:40:39;;;;;;;7.63;4.38;;;;;;;22.18;62.92;99220.03;2102338;28;20468;-44
2022/10/21 00:41:41;;;;;;;10.32;4.55;;;;;;;22.17;62.98;99215.63;2102373;28;20067;-45
2022/10/21 00:42:43;;;;;;;7.22;4.78;;;;;;;22.17;63.16;99213.75;2101726;28;20092;-45
2022/10/21 00:43:57;;;;;;;8.82;6.30;;;;;;;22.14;63.15;99211.47;2103211;28;20051;-45
2022/10/21 00:45:20;;;;;;;10.70;4.78;;;;;;;22.13;63.04;99209.81;2103377;28;20056;-46
2022/10/21 00:46:28;;;;;;;7.50;3.72;;;;;;;22.14;63.01;99213.34;2102516;28;20071;-44
2022/10/21 00:47:29;;;;;;;10.50;4.25;;;;;;;22.14;63.13;99211.47;2101976;28;20521;-46
2022/10/21 00:48:35;;;;;;;7.28;4.07;;;;;;;22.16;63.09;99216.66;2101489;28;20044;-45
2022/10/21 00:49:40;;;;;;;8.55;4.53;;;;;;;22.16;63.21;99211.28;2100278;28;20529;-44
2022/10/21 00:50:48;;;;;;;5.97;3.95;;;;;;;22.15;62.88;99215.84;2103049;28;20413;-44
2022/10/21 00:51:53;;;;;;;9.00;4.13;;;;;;;22.14;63.06;99214.16;2102425;28;20043;-45
2022/10/21 00:52:56;;;;;;;7.75;4.07;;;;;;;22.15;63.01;99217.69;2103505;28;20044;-45
2022/10/21 00:53:59;;;;;;;7.55;4.15;;;;;;;22.15;62.97;99215.00;2101483;28;20044;-44
2022/10/21 00:55:03;;;;;;;9.10;4.53;;;;;;;22.17;62.99;99204.81;2103353;28;20060;-45
2022/10/21 00:56:09;;;;;;;5.78;4.10;;;;;;;22.16;62.87;99204.00;2101810;28;20052;-45
2022/10/21 00:57:10;;;;;;;8.02;4.35;;;;;;;22.14;63.00;99203.34;2102348;28;20052;-45
2022/10/21 00:58:14;;;;;;;7.97;3.58;;;;;;;22.15;63.04;99204.19;2100889;28;20048;-48
2022/10/21 00:59:16;;;;;;;8.55;4.28;;;;;;;22.13;62.94;99206.28;2102694;28;20048;-45
2022/10/21 01:00:18;;;;;;;10.07;4.40;;;;;;;22.15;63.08;99201.47;2102241;28;20115;-45
2022/10/21 01:01:19;;;;;;;5.93;4.38;;;;;;;22.14;62.91;99197.97;2102648;28;20051;-47
2022/10/21 01:02:22;;;;;;;10.52;4.32;;;;;;;22.16;62.96;99205.88;2102090;28;20134;-45
2022/10/21 01:03:25;;;;;;;10.02;4.65;;;;;;;22.15;63.04;99212.28;2103089;28;20055;-45
2022/10/21 01:04:27;;;;;;;8.70;4.90;;;;;;;22.15;63.19;99212.28;2102429;28;20476;-46
2022/10/21 01:05:28;;;;;;;5.93;3.80;;;;;;;22.14;63.04;99207.94;2102749;28;20638;-45
2022/10/21 01:06:32;;;;;;;5.97;3.75;;;;;;;22.15;63.02;99204.19;2100529;28;20645;-45
2022/10/21 01:07:32;;;;;;;7.00;4.32;;;;;;;22.14;63.06;99205.25;2101025;28;20594;-45
2022/10/21 01:08:34;;;;;;;6.47;4.18;;;;;;;22.15;62.89;99206.88;2102126;28;20131;-44
2022/10/21 01:09:35;;;;;;;5.25;3.53;;;;;;;22.15;62.98;99202.34;2102216;28;20104;-46
2022/10/21 01:10:38;;;;;;;7.07;4.45;;;;;;;22.14;62.89;99197.13;2102691;28;20616;-46
2022/10/21 01:11:42;;;;;;;5.88;3.58;;;;;;;22.14;62.93;99197.13;2102829;28;20457;-47
2022/10/21 01:12:57;;;;;;;6.28;4.15;;;;;;;22.11;62.91;99190.28;2102429;28;20043;-45
2022/10/21 01:14:19;;;;;;;8.15;4.78;;;;;;;22.07;63.09;99186.34;2097693;28;20044;-45
2022/10/21 01:15:25;;;;;;;11.20;4.03;;;;;;;22.09;63.06;99178.84;2102628;28;20108;-46
2022/10/21 01:16:36;;;;;;;6.53;3.90;;;;;;;22.07;63.01;99176.38;2097671;28;20940;-47
2022/10/21 01:17:46;;;;;;;5.70;4.07;;;;;;;22.08;63.13;99174.50;2093186;28;20048;-43
2022/10/21 01:18:57;;;;;;;7.95;3.72;;;;;;;22.11;63.05;99176.78;2097504;28;20632;-45
2022/10/21 01:20:27;;;;;;;6.07;4.28;;;;;;;22.08;62.96;99179.91;2099195;28;20075;-44
2022/10/21 01:21:34;;;;;;;5.95;3.78;;;;;;;22.08;63.24;99172.63;2098377;28;20056;-45
2022/10/21 01:22:54;;;;;;;6.82;3.80;;;;;;;22.08;63.21;99174.50;2098004;28;20085;-46
2022/10/21 01:24:21;;;;;;;6.30;3.72;;;;;;;22.07;62.92;99170.16;2101135;28;20047;-45
2022/10/21 01:25:45;;;;;;;4.82;3.63;;;;;;;22.04;63.15;99171.41;2099798;28;21712;-45
2022/10/21 01:27:02;;;;;;;7.03;3.33;;;;;;;22.05;63.11;99167.66;2096699;28;20048;-48
2022/10/21 01:28:17;;;;;;;6.97;3.47;;;;;;;22.07;63.00;99165.56;2100250;28;20044;-46
2022/10/21 01:29:45;;;;;;;5.88;3.67;;;;;;;22.06;63.24;99163.94;2097433;28;20067;-46
2022/10/21 01:30:53;;;;;;;6.57;3.22;;;;;;;22.04;63.18;99166.00;2092251;28;20494;-44
2022/10/21 01:32:06;;;;;;;5.97;3.40;;;;;;;22.07;63.09;99165.56;2100200;28;20051;-45
2022/10/21 01:33:43;;;;;;;7.15;3.42;;;;;;;22.07;62.93;99156.66;2099823;28;21364;-45
2022/10/21 01:34:53;;;;;;;8.13;4.20;;;;;;;22.05;63.02;99161.44;2057806;28;20871;-45
2022/10/21 01:36:00;;;;;;;5.95;3.15;;;;;;;22.08;62.92;99167.22;2065981;28;20085;-46
2022/10/21 01:37:10;;;;;;;8.00;3.55;;;;;;;22.07;63.14;99164.75;2075574;28;20058;-45
2022/10/21 01:38:20;;;;;;;5.60;3.50;;;;;;;22.07;62.87;99165.56;2100669;28;20056;-46
2022/10/21 01:39:28;;;;;;;6.20;3.38;;;;;;;22.07;62.98;99170.97;2100556;28;20057;-45
2022/10/21 01:40:36;;;;;;;5.30;3.72;;;;;;;22.07;63.00;99170.97;2101239;28;20040;-45
2022/10/21 01:41:42;;;;;;;3.95;2.95;;;;;;;22.08;63.06;99175.31;2100011;28;20532;-45
2022/10/21 01:42:50;;;;;;;6.03;3.47;;;;;;;22.08;62.89;99179.91;2098520;28;20100;-46
2022/10/21 01:44:04;;;;;;;5.75;3.22;;;;;;;22.05;62.95;99172.22;2100218;28;20052;-45
2022/10/21 01:45:11;;;;;;;5.53;3.78;;;;;;;22.06;62.91;99174.72;2097698;28;20047;-45
2022/10/21 01:46:22;;;;;;;7.82;3.88;;;;;;;22.08;62.90;99180.72;2100489;28;20046;-44
2022/10/21 01:47:30;;;;;;;5.38;3.33;;;;;;;22.04;62.96;99168.72;2097574;28;20048;-44
2022/10/21 01:48:35;;;;;;;4.43;3.05;;;;;;;22.07;63.04;99170.97;2098480;28;20623;-45
2022/10/21 01:49:40;;;;;;;7.50;3.33;;;;;;;22.07;63.04;99165.56;2095742;28;20056;-44
2022/10/21 01:50:46;;;;;;;7.40;3.72;;;;;;;22.08;62.96;99166.41;2098957;28;20036;-45
2022/10/21 01:51:47;;;;;;;5.38;3.10;;;;;;;22.07;62.90;99164.75;2098977;28;20097;-47
2022/10/21 01:52:53;;;;;;;7.68;3.58;;;;;;;22.09;62.95;99159.94;2100433;28;20051;-45
2022/10/21 01:54:00;;;;;;;7.18;3.80;;;;;;;22.08;62.81;99161.81;2101251;28;20055;-47
2022/10/21 01:55:06;;;;;;;7.95;3.50;;;;;;;22.08;62.91;99152.88;2098294;28;20132;-45
2022/10/21 01:56:10;;;;;;;6.32;3.72;;;;;;;22.06;62.98;99149.56;2101569;28;20484;-46
2022/10/21 01:57:16;;;;;;;5.18;3.17;;;;;;;22.07;63.03;99149.38;2099840;28;20050;-47
2022/10/21 01:58:20;;;;;;;9.07;5.15;;;;;;;22.09;62.78;99149.13;2098750;28;20369;-47
2022/10/21 01:59:26;;;;;;;4.60;3.40;;;;;;;22.09;62.81;99147.28;2098123;28;20048;-46
2022/10/21 02:00:28;;;;;;;7.30;4.10;;;;;;;22.06;62.89;99147.72;2098263;28;20048;-46
2022/10/21 02:01:33;;;;;;;5.97;3.75;;;;;;;22.09;62.98;99146.44;2097805;28;20056;-44
2022/10/21 02:02:39;;;;;;;6.90;3.95;;;;;;;22.09;62.63;99154.53;2098898;28;20087;-45
2022/10/21 02:03:45;;;;;;;5.72;3.20;;;;;;;22.09;62.92;99151.84;2097493;28;20564;-46
2022/10/21 02:04:49;;;;;;;5.15;3.10;;;;;;;22.09;62.89;99158.09;2097630;28;20065;-45
2022/10/21 02:05:51;;;;;;;6.40;3.75;;;;;;;22.07;62.84;99149.38;2099191;28;20052;-46
2022/10/21 02:06:52;;;;;;;6.40;3.58;;;;;;;22.08;63.12;99156.41;2098789;28;20052;-45
2022/10/21 02:07:55;;;;;;;7.78;4.07;;;;;;;22.08;62.84;99150.19;2098380;28;20506;-45
2022/10/21 02:08:56;;;;;;;5.53;3.50;;;;;;;22.07;62.89;99154.78;2099170;28;20048;-45
2022/10/21 02:09:58;;;;;;;6.50;3.50;;;;;;;22.08;62.87;99150.19;2098437;28;20044;-46
2022/10/21 02:11:01;;;;;;;9.57;4.03;;;;;;;22.08;62.73;99151.00;2097750;28;20056;-46
2022/10/21 02:12:05;;;;;;;8.63;4.05;;;;;;;22.08;63.02;99151.00;2098734;28;20051;-45
2022/10/21 02:13:10;;;;;;;6.15;3.03;;;;;;;22.08;62.79;99156.41;2098178;28;20105;-46
2022/10/21 02:14:17;;;;;;;5.85;3.42;;;;;;;22.05;62.82;99153.31;2102110;28;20048;-48
2022/10/21 02:15:20;;;;;;;6.40;3.38;;;;;;;22.06;62.93;99161.22;2096479;28;20056;-45
2022/10/21 02:16:25;;;;;;;5.00;3.15;;;;;;;22.06;62.89;99158.53;2101653;28;20163;-45
2022/10/21 02:17:28;;;;;;;6.22;3.30;;;;;;;22.07;62.91;99162.06;2098603;28;20071;-47
2022/10/21 02:18:30;;;;;;;6.07;3.55;;;;;;;22.08;62.51;99159.13;2100498;28;20056;-45
2022/10/21 02:19:31;;;;;;;8.00;3.53;;;;;;;22.07;62.94;99165.56;2096876;28;20462;-45
2022/10/21 02:20:36;;;;;;;7.03;3.13;;;;;;;22.06;62.77;99161.22;2097769;28;20094;-46
2022/10/21 02:21:38;;;;;;;7.88;3.70;;;;;;;22.07;62.74;99160.16;2097590;28;20147;-50
2022/10/21 02:22:41;;;;;;;4.40;3.10;;;;;;;22.06;62.76;99158.53;2100078;28;20056;-43
2022/10/21 02:23:51;;;;;;;7.05;2.95;;;;;;;22.06;62.97;99161.22;2097286;28;20078;-45
2022/10/21 02:24:56;;;;;;;5.30;3.80;;;;;;;22.03;63.00;99158.91;2100865;28;20056;-45
2022/10/21 02:25:57;;;;;;;4.32;2.85;;;;;;;22.04;62.84;99154.38;2101970;28;20052;-44
2022/10/21 02:26:59;;;;;;;5.70;2.92;;;;;;;22.06;62.68;99158.53;2099558;28;21312;-45
2022/10/21 02:28:00;;;;;;;6.38;3.60;;;;;;;22.05;62.76;99156.84;2099064;28;20389;-45
2022/10/21 02:29:02;;;;;;;5.63;3.40;;;;;;;22.07;62.71;99154.78;2099226;28;20494;-44
2022/10/21 02:30:04;;;;;;;4.82;2.75;;;;;;;22.07;62.74;99157.47;2098569;28;20052;-45
2022/10/21 02:31:17;;;;;;;7.10;4.05;;;;;;;22.07;62.87;99162.88;2099132;28;21284;-44
2022/10/21 02:32:31;;;;;;;4.43;3.25;;;;;;;22.04;62.39;99157.91;2097134;28;20044;-45
2022/10/21 02:33:41;;;;;;;8.75;3.97;;;;;;;22.04;62.68;99151.66;2098230;28;20166;-44
2022/10/21 02:34:54;;;;;;;3.63;2.30;;;;;;;22.03;62.83;99158.09;2097427;28;20063;-45
2022/10/21 02:36:08;;;;;;;6.43;3.80;;;;;;;22.02;62.96;99151.06;2098205;28;20911;-45
2022/10/21 02:37:19;;;;;;;6.13;3.03;;;;;;;22.03;62.64;99147.28;2101341;28;20055;-45
2022/10/21 02:38:27;;;;;;;7.03;4.15;;;;;;;22.02;62.99;99151.06;2099522;28;20139;-45
2022/10/21 02:39:34;;;;;;;5.55;2.83;;;;;;;22.02;62.82;99145.66;2098240;28;20081;-46
2022/10/21 02:40:40;;;;;;;4.45;2.97;;;;;;;22.05;62.83;99142.50;2099184;28;20088;-45
2022/10/21 02:41:43;;;;;;;4.18;2.75;;;;;;;22.03;62.77;99141.91;2097486;28;20108;-46
2022/10/21 02:42:48;;;;;;;4.88;3.60;;;;;;;22.04;62.74;99139.00;2096870;28;20734;-46
2022/10/21 02:43:54;;;;;;;6.65;3.35;;;;;;;22.02;62.78;99146.47;2100999;28;20056;-44
2022/10/21 02:44:56;;;;;;;7.45;3.42;;;;;;;22.03;62.63;99141.91;2097462;28;20658;-44
2022/10/21 02:46:00;;;;;;;7.53;3.88;;;;;;;22.04;62.53;99133.59;2096965;28;20044;-45
2022/10/21 02:47:03;;;;;;;6.82;3.15;;;;;;;22.03;62.63;99134.63;2097660;28;21683;-45
2022/10/21 02:48:06;;;;;;;5.55;3.05;;;;;;;22.03;62.64;99136.50;2097545;28;20056;-45
2022/10/21 02:49:08;;;;;;;4.35;3.03;;;;;;;22.03;62.79;99131.91;2098295;28;20136;-47
2022/10/21 02:50:09;;;;;;;4.82;2.95;;;;;;;22.02;62.64;99127.56;2098438;28;20052;-47
2022/10/21 02:51:12;;;;;;;6.72;3.67;;;;;;;22.06;62.71;99130.66;2099101;28;20044;-45
2022/10/21 02:52:12;;;;;;;4.90;3.47;;;;;;;22.04;62.78;99133.59;2099297;28;20056;-46
2022/10/21 02:53:14;;;;;;;7.40;3.58;;;;;;;22.05;62.61;99134.41;2093889;28;20076;-46
2022/10/21 02:54:15;;;;;;;5.35;3.70;;;;;;;22.03;62.77;99131.91;2096613;28;20571;-46
2022/10/21 02:55:17;;;;;;;3.08;2.72;;;;;;;22.03;62.54;99126.50;2098070;28;20089;-48
2022/10/21 02:56:18;;;;;;;4.43;3.30;;;;;;;22.03;62.86;99128.38;2098859;28;20051;-47
2022/10/21 02:57:20;;;;;;;6.07;3.22;;;;;;;22.02;62.71;99124.88;2094680;28;20177;-44
2022/10/21 02:58:20;;;;;;;5.10;3.83;;;;;;;22.02;62.71;99127.56;2096117;28;20125;-46
2022/10/21 02:59:22;;;;;;;5.40;3.50;;;;;;;22.04;62.68;99122.78;2099905;28;20047;-46
2022/10/21 03:00:23;;;;;;;5.25;2.53;;;;;;;22.02;62.62;99122.16;2099707;28;20056;-47
2022/10/21 03:01:25;;;;;;;5.90;3.22;;;;;;;22.04;62.55;99132.75;2100271;28;20693;-49
2022/10/21 03:02:25;;;;;;;4.82;3.08;;;;;;;22.03;62.76;99131.91;2103618;28;20471;-47
2022/10/21 03:03:29;;;;;;;5.63;3.05;;;;;;;22.04;62.58;99121.97;2103513;28;20048;-46
2022/10/21 03:04:30;;;;;;;7.35;3.75;;;;;;;22.04;62.77;99132.75;2103921;28;20529;-46
2022/10/21 03:05:32;;;;;;;5.93;2.97;;;;;;;22.03;62.75;99134.63;2096693;28;20075;-49
2022/10/21 03:06:32;;;;;;;4.47;2.53;;;;;;;22.03;62.67;99137.31;2100603;28;20090;-44
2022/10/21 03:07:34;;;;;;;5.25;2.95;;;;;;;22.04;62.54;99143.56;2103787;28;20054;-48
2022/10/21 03:08:35;;;;;;;5.25;2.97;;;;;;;22.03;62.62;99145.41;2103864;28;20052;-45
2022/10/21 03:09:37;;;;;;;7.25;3.60;;;;;;;22.03;62.63;99145.41;2103461;28;20048;-46
2022/10/21 03:10:38;;;;;;;4.20;2.92;;;;;;;22.04;62.70;99143.56;2103051;28;20448;-44
2022/10/21 03:11:39;;;;;;;4.07;3.10;;;;;;;22.02;62.50;99146.47;2104144;28;20040;-46
2022/10/21 03:12:40;;;;;;;4.25;2.72;;;;;;;22.05;62.54;99147.91;2101620;28;20056;-47
2022/10/21 03:13:42;;;;;;;5.22;3.22;;;;;;;22.02;62.50;99149.16;2103330;28;20051;-45
2022/10/21 03:14:43;;;;;;;5.50;3.08;;;;;;;22.03;62.54;99150.81;2102966;28;20071;-45
2022/10/21 03:15:44;;;;;;;3.75;3.08;;;;;;;22.02;62.72;99143.78;2101831;28;20044;-44
2022/10/21 03:16:45;;;;;;;4.20;3.03;;;;;;;22.02;62.49;99151.06;2101980;28;20044;-45
2022/10/21 03:17:47;;;;;;;4.03;2.53;;;;;;;22.03;62.54;99150.00;2099035;28;20334;-44
2022/10/21 03:18:50;;;;;;;5.40;3.50;;;;;;;22.03;62.60;99142.72;2097118;28;20719;-48
2022/10/21 03:19:51;;;;;;;4.40;3.28;;;;;;;22.01;62.61;99147.53;2098416;28;20063;-44
2022/10/21 03:20:52;;;;;;;5.82;3.75;;;;;;;22.00;62.74;99143.16;2097480;28;20104;-46
2022/10/21 03:21:54;;;;;;;4.30;3.03;;;;;;;22.03;62.50;99141.91;2098456;28;20484;-47
2022/10/21 03:22:55;;;;;;;4.45;2.97;;;;;;;22.02;62.45;99137.53;2100614;28;20472;-48
2022/10/21 03:23:57;;;;;;;5.10;3.10;;;;;;;22.01;62.55;99133.19;2097432;28;20052;-45
2022/10/21 03:24:57;;;;;;;5.18;2.55;;;;;;;22.01;62.53;99131.31;2095961;28;20048;-46
2022/10/21 03:25:59;;;;;;;4.07;2.53;;;;;;;22.01;62.64;99138.59;2097811;28;20059;-44
2022/10/21 03:27:00;;;;;;;4.43;3.03;;;;;;;22.02;62.46;99130.25;2097802;28;20063;-44
2022/10/21 03:28:02;;;;;;;6.45;4.03;;;;;;;22.02;62.42;99124.03;2103448;28;20055;-45
2022/10/21 03:29:03;;;;;;;4.80;3.10;;;;;;;22.01;62.63;99128.63;2100416;28;20048;-45
2022/10/21 03:30:06;;;;;;;3.97;2.92;;;;;;;22.01;62.46;99130.50;2100560;28;20109;-46
2022/10/21 03:31:07;;;;;;;8.05;2.92;;;;;;;22.00;62.49;99123.41;2097559;28;20060;-45
2022/10/21 03:32:09;;;;;;;3.92;2.53;;;;;;;22.01;62.50;99122.38;2097181;28;20060;-46
2022/10/21 03:33:09;;;;;;;7.60;2.92;;;;;;;22.01;62.41;99125.09;2099394;28;20053;-47
2022/10/21 03:34:13;;;;;;;5.10;2.53;;;;;;;22.01;62.61;99127.78;2102062;28;20048;-44
2022/10/21 03:35:14;;;;;;;3.88;2.42;;;;;;;22.00;62.39;99120.72;2102323;28;20048;-44
2022/10/21 03:36:15;;;;;;;;;;;;;;;21.89;62.92;99126.78;2103497;28;20135;-45
2022/10/21 03:37:16;;;;;;;5.22;2.88;;;;;;;21.91;62.95;99130.09;2103490;28;19928;-44
2022/10/21 03:38:18;;;;;;;4.20;2.85;;;;;;;21.95;62.69;99132.16;2103546;28;20109;-44
2022/10/21 03:39:18;;;;;;;3.95;3.10;;;;;;;21.97;62.59;99127.38;2102044;28;20055;-44
2022/10/21 03:40:22;;;;;;;2.90;2.28;;;;;;;21.98;62.52;99128.19;2103102;28;20608;-45
2022/10/21 03:41:23;;;;;;;5.43;3.17;;;;;;;21.97;62.43;99129.25;2103109;28;20490;-45
2022/10/21 03:42:25;;;;;;;6.18;3.00;;;;;;;21.98;62.58;99128.19;2103811;28;20123;-46
2022/10/21 03:43:25;;;;;;;5.15;2.95;;;;;;;21.98;62.50;99128.19;2103572;28;20044;-45
2022/10/21 03:44:27;;;;;;;3.78;2.92;;;;;;;21.98;62.63;99123.66;2103354;28;20044;-44
2022/10/21 03:45:28;;;;;;;6.70;3.20;;;;;;;21.98;62.66;99128.19;2103221;28;20044;-45
2022/10/21 03:46:29;;;;;;;;;;;;;;;21.88;62.84;99123.25;2103302;28;20056;-44
2022/10/21 03:47:30;;;;;;;3.25;2.50;;;;;;;21.91;62.80;99122.81;2102035;28;19988;-46
2022/10/21 03:48:32;;;;;;;4.13;3.00;;;;;;;21.94;62.93;99122.41;2103378;28;20078;-45
2022/10/21 03:49:34;;;;;;;5.07;3.03;;;;;;;21.95;62.47;99124.03;2103274;28;20040;-47
2022/10/21 03:50:36;;;;;;;4.30;2.55;;;;;;;21.96;62.53;99127.59;2104386;28;20048;-45
2022/10/21 03:51:37;;;;;;;5.45;3.38;;;;;;;21.97;62.49;99129.25;2102451;28;20048;-46
2022/10/21 03:52:39;;;;;;;5.38;3.47;;;;;;;21.97;62.48;99121.16;2103953;28;20052;-46
2022/10/21 03:53:39;;;;;;;5.68;4.10;;;;;;;21.97;62.73;99121.97;2102690;28;20405;-48
2022/10/21 03:54:41;;;;;;;;;;;;;;;21.87;62.67;99124.31;2103389;28;20048;-45
2022/10/21 03:55:41;;;;;;;;;;;;;;;21.78;63.17;99128.25;2102749;28;19924;-45
2022/10/21 03:56:43;;;;;;;5.27;2.67;;;;;;;21.85;62.79;99123.69;2102728;28;19928;-46
2022/10/21 03:57:44;;;;;;;5.82;2.85;;;;;;;21.89;62.80;99127.59;2102186;28;20863;-46
2022/10/21 03:58:46;;;;;;;4.65;2.63;;;;;;;21.92;62.71;99123.66;2103459;28;20119;-46
2022/10/21 03:59:47;;;;;;;6.22;2.60;;;;;;;21.94;62.69;99130.50;2102929;28;20040;-45
2022/10/21 04:00:51;;;;;;;6.10;3.45;;;;;;;21.93;62.45;99128.84;2102892;28;20052;-48
2022/10/21 04:01:52;;;;;;;5.85;3.40;;;;;;;21.94;62.75;99125.09;2103434;28;20043;-47
2022/10/21 04:02:54;;;;;;;5.32;3.28;;;;;;;21.95;62.59;99125.91;2102317;28;20097;-48
2022/10/21 04:03:55;;;;;;;5.32;2.97;;;;;;;21.95;62.65;99128.63;2102006;28;20048;-46
2022/10/21 04:04:58;;;;;;;3.58;2.67;;;;;;;21.95;62.56;99121.34;2096293;28;20127;-44
2022/10/21 04:05:59;;;;;;;4.80;2.80;;;;;;;21.95;62.50;99126.75;2102155;28;20053;-44
2022/10/21 04:07:00;;;;;;;;;;;;;;;21.85;62.82;99124.50;2103275;28;20079;-48
2022/10/21 04:08:01;;;;;;;4.32;3.15;;;;;;;21.86;62.92;99123.47;2103227;28;19993;-45
2022/10/21 04:09:04;;;;;;;4.05;2.58;;;;;;;21.90;62.69;99120.31;2103322;28;20044;-45
2022/10/21 04:10:06;;;;;;;6.63;3.25;;;;;;;21.93;62.69;99122.63;2102442;28;20494;-45
2022/10/21 04:11:08;;;;;;;4.70;3.08;;;;;;;21.93;62.73;99125.34;2102417;28;20040;-46
2022/10/21 04:12:08;;;;;;;5.63;3.15;;;;;;;21.94;62.54;99126.97;2103347;28;20089;-46
2022/10/21 04:13:10;;;;;;;4.28;3.20;;;;;;;21.94;62.76;99130.50;2101740;28;20101;-46
2022/10/21 04:14:11;;;;;;;3.45;3.00;;;;;;;21.95;62.46;99125.91;2102542;28;20049;-45
2022/10/21 04:15:13;;;;;;;4.25;2.95;;;;;;;21.95;62.75;99123.22;2103222;28;20040;-46
2022/10/21 04:16:17;;;;;;;3.85;2.75;;;;;;;21.94;62.55;99122.41;2101589;28;20531;-46
2022/10/21 04:17:19;;;;;;;2.90;2.53;;;;;;;21.93;62.61;99117.22;2101029;28;20074;-45
2022/10/21 04:18:20;;;;;;;4.53;2.95;;;;;;;21.92;62.70;99116.38;2102110;28;20040;-46
2022/10/21 04:19:21;;;;;;;5.57;2.95;;;;;;;21.92;62.78;99119.06;2101884;28;20051;-46
2022/10/21 04:20:23;;;;;;;4.45;2.90;;;;;;;21.93;62.63;99120.75;2102313;28;20051;-46
2022/10/21 04:21:25;;;;;;;5.65;3.15;;;;;;;21.94;62.64;99126.97;2102890;28;20048;-46
2022/10/21 04:22:26;;;;;;;3.30;2.47;;;;;;;21.93;62.45;99119.94;2103646;28;20525;-46
2022/10/21 04:23:28;;;;;;;7.53;3.05;;;;;;;21.95;62.48;99123.22;2102732;28;20071;-45
2022/10/21 04:24:29;;;;;;;4.30;2.90;;;;;;;21.94;62.49;99116.19;2103054;28;20481;-45
2022/10/21 04:25:30;;;;;;;3.65;3.05;;;;;;;21.93;62.46;99109.94;2101424;28;20040;-45
2022/10/21 04:26:31;;;;;;;5.72;3.40;;;;;;;21.94;62.47;99116.19;2101402;28;20108;-46
2022/10/21 04:27:34;;;;;;;4.75;2.50;;;;;;;21.92;62.55;99119.06;2102767;28;20497;-45
2022/10/21 04:28:35;;;;;;;4.05;2.47;;;;;;;21.92;62.80;99118.25;2102944;28;20136;-45
2022/10/21 04:29:37;;;;;;;5.30;2.50;;;;;;;21.93;62.55;99123.44;2102182;28;20040;-45
2022/10/21 04:30:38;;;;;;;3.78;2.53;;;;;;;21.94;62.54;99119.69;2102785;28;20501;-45
2022/10/21 04:31:40;;;;;;;3.45;2.42;;;;;;;21.94;62.52;99122.41;2102025;28;20055;-45
2022/10/21 04:32:41;;;;;;;3.22;2.83;;;;;;;21.95;62.43;99124.03;2102156;28;20044;-45
2022/10/21 04:33:43;;;;;;;4.63;2.97;;;;;;;21.94;62.70;99122.41;2097849;28;20086;-46
2022/10/21 04:34:44;;;;;;;3.45;2.75;;;;;;;21.93;62.44;99134.25;2097196;28;20048;-45
2022/10/21 04:35:47;;;;;;;3.97;2.63;;;;;;;21.93;62.63;99131.56;2097116;28;20064;-45
2022/10/21 04:36:48;;;;;;;6.20;3.20;;;;;;;21.92;62.61;99135.28;2097623;28;20048;-45
2022/10/21 04:37:50;;;;;;;4.15;2.90;;;;;;;21.91;62.60;99133.63;2097854;28;20685;-44
2022/10/21 04:38:51;;;;;;;3.53;2.38;;;;;;;21.91;62.50;99130.94;2096564;28;20052;-45
2022/10/21 04:39:52;;;;;;;3.90;2.67;;;;;;;21.91;62.66;99139.03;2097110;28;20755;-45
2022/10/21 04:40:57;;;;;;;3.72;3.13;;;;;;;21.93;62.63;99131.56;2098127;28;20055;-45
2022/10/21 04:41:59;;;;;;;3.65;2.63;;;;;;;21.91;62.58;99136.34;2096128;28;20058;-46
2022/10/21 04:42:59;;;;;;;5.13;2.92;;;;;;;21.91;62.62;99136.34;2097666;28;20520;-47
2022/10/21 04:44:01;;;;;;;4.25;2.88;;;;;;;21.92;62.45;99140.69;2097254;28;20056;-46
2022/10/21 04:45:03;;;;;;;4.35;2.70;;;;;;;21.91;62.57;99138.22;2098245;28;20055;-45
2022/10/21 04:46:09;;;;;;;5.18;2.78;;;;;;;21.91;62.48;99141.72;2097787;28;20055;-45
2022/10/21 04:47:10;;;;;;;4.03;2.38;;;;;;;21.91;62.80;99147.13;2098943;28;20451;-46
2022/10/21 04:48:12;;;;;;;;;;;;;;;21.81;62.97;99153.00;2097480;28;20074;-45
2022/10/21 04:49:13;;;;;;;3.80;2.95;;;;;;;21.83;62.93;99147.38;2098576;28;19939;-45
2022/10/21 04:50:15;;;;;;;5.47;3.45;;;;;;;21.86;62.69;99157.75;2096924;28;20823;-45
2022/10/21 04:51:17;;;;;;;3.72;2.88;;;;;;;21.90;62.79;99164.41;2098014;28;20047;-44
2022/10/21 04:52:18;;;;;;;4.22;3.13;;;;;;;21.89;62.76;99151.91;2097814;28;20056;-44
2022/10/21 04:53:20;;;;;;;4.47;2.78;;;;;;;21.91;62.50;99154.41;2098592;28;20436;-43
2022/10/21 04:54:22;;;;;;;4.57;2.97;;;;;;;21.91;62.50;99157.94;2098066;28;20040;-45
2022/10/21 04:55:23;;;;;;;4.10;3.10;;;;;;;21.90;62.68;99156.28;2098230;28;20129;-45
2022/10/21 04:56:24;;;;;;;4.20;3.35;;;;;;;21.90;62.54;99152.72;2098149;28;20604;-45
2022/10/21 04:57:25;;;;;;;4.30;2.75;;;;;;;21.91;62.62;99152.53;2091032;28;20045;-47
2022/10/21 04:58:27;;;;;;;3.58;2.63;;;;;;;21.90;62.49;99153.59;2089420;28;20116;-45
2022/10/21 04:59:28;;;;;;;3.78;3.38;;;;;;;21.90;62.73;99150.03;2095223;28;20067;-44
2022/10/21 05:00:30;;;;;;;3.63;2.42;;;;;;;21.90;62.72;99153.59;2094929;28;20062;-45